Time;durP1;ratioP1;P1;durP2;ratioP2;P2;SDS_P1;SDS_P2;PMS_P1;PMS_P2;Temp;Humidity;BMP_temperature;BMP_pressure;BME280_temperature;BME280_humidity;BME280_pressure;Samples;Min_cycle;Max_cycle;Signal;HPM_P1;HPM_P2
2023/03/12 00:02:03;;;;;;;11.03;10.33;;;;;;;2.33;69.19;91915.19;5068282;28;20208;-69
2023/03/12 00:04:30;;;;;;;12.47;11.77;;;;;;;2.25;69.13;91921.56;5069349;28;20265;-69
2023/03/12 00:06:56;;;;;;;10.73;10.13;;;;;;;2.23;69.39;91920.22;5067335;28;20231;-70
2023/03/12 00:09:22;;;;;;;11.77;11.07;;;;;;;2.18;69.79;91912.50;5068628;28;20174;-70
2023/03/12 00:11:47;;;;;;;11.20;10.47;;;;;;;2.24;70.85;91914.84;5068089;28;20312;-70
2023/03/12 00:14:13;;;;;;;12.33;10.93;;;;;;;2.19;69.94;91899.38;5068852;28;20176;-69
2023/03/12 00:16:39;;;;;;;10.70;10.00;;;;;;;2.20;69.53;91915.56;5068274;28;20244;-69
2023/03/12 00:19:04;;;;;;;11.67;10.57;;;;;;;2.13;69.59;91912.44;5068680;28;20205;-69
2023/03/12 00:21:30;;;;;;;10.47;9.87;;;;;;;2.18;68.37;91907.34;5067822;28;20232;-69
2023/03/12 00:23:55;;;;;;;10.07;9.57;;;;;;;2.11;69.22;91914.47;5068733;28;20200;-68
2023/03/12 00:26:21;;;;;;;11.00;10.33;;;;;;;2.18;69.97;91915.81;5068406;28;20221;-69
2023/03/12 00:28:48;;;;;;;10.83;10.13;;;;;;;2.02;69.07;91916.72;5069222;28;20185;-70
2023/03/12 00:31:15;;;;;;;12.23;11.43;;;;;;;2.00;68.64;91910.25;5068115;28;20236;-70
2023/03/12 00:33:41;;;;;;;11.07;10.47;;;;;;;2.05;66.93;91910.31;5069241;28;20193;-70
2023/03/12 00:36:07;;;;;;;11.70;10.83;;;;;;;1.88;67.88;91909.63;5068610;28;20229;-70
2023/03/12 00:38:32;;;;;;;10.80;10.30;;;;;;;1.93;68.15;91919.97;5068688;28;20181;-70
2023/03/12 00:40:57;;;;;;;10.17;9.67;;;;;;;1.95;65.68;91930.78;5068479;28;20237;-70
2023/03/12 00:43:23;;;;;;;10.87;10.03;;;;;;;1.98;66.75;91925.19;5067697;28;20184;-70
2023/03/12 00:45:48;;;;;;;11.93;10.97;;;;;;;1.83;67.08;91922.44;5068289;28;20225;-70
2023/03/12 00:48:14;;;;;;;10.60;10.03;;;;;;;1.81;66.34;91921.91;5068462;28;20374;-69
2023/03/12 00:50:39;;;;;;;12.10;11.23;;;;;;;1.76;67.23;91916.72;5067251;28;20225;-70
2023/03/12 00:53:04;;;;;;;10.10;9.60;;;;;;;1.61;66.40;91909.63;5068785;28;20273;-69
2023/03/12 00:55:30;;;;;;;9.90;9.33;;;;;;;1.78;66.78;91920.59;5068041;28;20237;-70
2023/03/12 00:57:55;;;;;;;8.90;8.60;;;;;;;2.00;59.96;91918.75;5067694;28;20193;-69
2023/03/12 01:00:21;;;;;;;10.00;9.27;;;;;;;1.96;63.03;91916.91;5068113;28;20221;-70
2023/03/12 01:02:47;;;;;;;10.00;9.50;;;;;;;1.99;62.08;91921.56;5068471;28;20188;-69
2023/03/12 01:05:13;;;;;;;10.27;9.77;;;;;;;1.96;65.29;91924.63;5068199;28;20250;-70
2023/03/12 01:07:39;;;;;;;9.73;9.30;;;;;;;1.81;66.17;91917.53;5068307;28;20238;-70
2023/03/12 01:10:05;;;;;;;11.47;10.87;;;;;;;1.83;64.53;91907.78;5067809;28;20216;-71
2023/03/12 01:12:31;;;;;;;10.60;9.93;;;;;;;1.78;65.11;91906.94;5066969;28;20189;-69
2023/03/12 01:14:56;;;;;;;11.20;10.60;;;;;;;1.96;63.47;91927.97;5068629;28;20257;-70
2023/03/12 01:17:22;;;;;;;9.60;8.90;;;;;;;1.80;62.09;91920.34;5068483;28;20220;-69
2023/03/12 01:19:47;;;;;;;10.47;9.97;;;;;;;1.96;62.69;91940.09;5068159;28;20189;-69
2023/03/12 01:22:13;;;;;;;10.03;9.60;;;;;;;1.99;62.98;91944.75;5068160;28;20231;-70
2023/03/12 01:24:38;;;;;;;10.07;9.57;;;;;;;2.04;59.91;91971.28;5068609;28;20185;-69
2023/03/12 01:27:04;;;;;;;10.53;9.93;;;;;;;1.97;62.33;91957.06;5066615;28;20209;-69
2023/03/12 01:29:29;;;;;;;10.60;10.10;;;;;;;1.91;62.78;91950.31;5068414;28;20185;-70
2023/03/12 01:31:54;;;;;;;10.07;9.57;;;;;;;1.83;64.26;91955.88;5067520;28;20233;-70
2023/03/12 01:34:20;;;;;;;9.83;9.33;;;;;;;1.84;66.95;91980.63;5068206;28;20197;-69
2023/03/12 01:36:46;;;;;;;11.03;10.53;;;;;;;1.83;64.73;91935.31;5067498;28;20221;-69
2023/03/12 01:39:12;;;;;;;9.93;9.53;;;;;;;1.81;63.62;91947.63;5068360;28;20206;-70
2023/03/12 01:41:38;;;;;;;10.17;9.57;;;;;;;1.80;63.06;91943.50;5067241;28;20221;-70
2023/03/12 01:44:04;;;;;;;9.27;8.67;;;;;;;1.70;64.43;91969.91;5068390;28;20240;-69
2023/03/12 01:46:35;;;;;;;9.67;9.27;;;;;;;1.95;60.10;91966.81;5067625;28;20247;-68
2023/03/12 01:49:18;;;;;;;9.63;9.23;;;;;;;1.94;59.95;91967.84;5066929;28;20170;-70
2023/03/12 01:52:02;;;;;;;9.40;9.00;;;;;;;2.02;58.97;91977.72;5066800;28;20259;-70
2023/03/12 01:54:36;;;;;;;9.13;8.73;;;;;;;2.01;58.60;91973.59;5068345;28;20204;-69
2023/03/12 01:57:05;;;;;;;9.80;9.27;;;;;;;2.09;57.61;91983.44;5067592;28;20244;-70
2023/03/12 01:59:36;;;;;;;9.87;9.37;;;;;;;2.09;58.55;91988.56;5067418;28;20188;-70
2023/03/12 02:02:02;;;;;;;10.83;10.07;;;;;;;1.82;60.56;91975.72;5068128;28;20255;-69
2023/03/12 02:04:31;;;;;;;9.53;9.13;;;;;;;1.77;61.24;91975.66;5068551;28;20189;-70
2023/03/12 02:06:59;;;;;;;9.73;9.33;;;;;;;1.78;61.89;91977.19;5067976;28;20237;-70
2023/03/12 02:09:25;;;;;;;10.37;9.60;;;;;;;1.89;59.01;91962.63;5071777;28;20259;-70
2023/03/12 02:11:50;;;;;;;9.50;9.10;;;;;;;1.85;57.89;91970.09;5071332;28;20301;-70
2023/03/12 02:14:16;;;;;;;9.93;9.43;;;;;;;1.93;57.74;91968.88;5072472;28;20181;-69
2023/03/12 02:16:42;;;;;;;10.43;10.00;;;;;;;1.96;59.76;91963.25;5071216;28;20225;-69
2023/03/12 02:19:17;;;;;;;9.83;9.43;;;;;;;1.96;58.79;91953.72;5072329;28;20188;-70
2023/03/12 02:21:43;;;;;;;9.00;8.60;;;;;;;1.98;57.54;91966.34;5071289;28;20344;-70
2023/03/12 02:24:27;;;;;;;9.23;8.63;;;;;;;1.83;57.00;91968.75;5071892;28;20182;-69
2023/03/12 02:26:52;;;;;;;8.50;8.20;;;;;;;1.78;57.67;91960.97;5070054;28;20225;-70
2023/03/12 02:29:18;;;;;;;9.40;9.00;;;;;;;1.67;59.75;91971.16;5071572;28;20237;-70
2023/03/12 02:31:51;;;;;;;9.87;9.37;;;;;;;1.65;60.12;91977.56;5071083;28;20225;-69
2023/03/12 02:34:16;;;;;;;9.50;9.10;;;;;;;1.60;61.89;91983.41;5070569;28;20197;-70
2023/03/12 02:36:41;;;;;;;8.97;8.57;;;;;;;1.69;58.03;91983.78;5071056;28;20259;-70
2023/03/12 02:39:10;;;;;;;10.13;9.73;;;;;;;1.68;58.12;91983.00;5071879;28;20186;-70
2023/03/12 02:41:43;;;;;;;9.57;9.27;;;;;;;1.86;56.33;91999.16;5071073;28;20229;-70
2023/03/12 02:44:17;;;;;;;9.37;8.97;;;;;;;1.91;53.90;91999.22;5084442;28;20220;-69
2023/03/12 02:46:49;;;;;;;9.43;9.03;;;;;;;1.83;59.01;92003.00;5071606;28;20259;-70
2023/03/12 02:49:17;;;;;;;8.67;8.37;;;;;;;1.84;54.69;92008.94;5071166;28;20245;-69
2023/03/12 02:51:44;;;;;;;8.93;8.63;;;;;;;1.94;53.34;92001.31;5070612;28;20300;-70
2023/03/12 02:54:11;;;;;;;8.30;7.90;;;;;;;1.89;54.59;92014.88;5071569;28;20220;-70
2023/03/12 02:56:37;;;;;;;7.67;7.43;;;;;;;1.88;55.80;92008.19;5069396;28;20232;-70
2023/03/12 02:59:03;;;;;;;8.87;8.57;;;;;;;1.85;56.19;91987.31;5071233;28;20198;-70
2023/03/12 03:01:32;;;;;;;9.43;9.03;;;;;;;1.89;54.90;91990.94;5069602;28;20251;-70
2023/03/12 03:03:58;;;;;;;8.90;8.50;;;;;;;1.83;53.64;91981.63;5071018;28;20184;-70
2023/03/12 03:06:23;;;;;;;9.50;9.00;;;;;;;1.93;54.82;91985.06;5070239;28;20213;-70
2023/03/12 03:08:48;;;;;;;9.60;9.00;;;;;;;1.80;53.07;91992.41;5070461;28;20209;-70
2023/03/12 03:11:14;;;;;;;9.50;9.10;;;;;;;1.78;51.83;91973.84;5070357;28;20221;-70
2023/03/12 03:13:39;;;;;;;9.03;8.73;;;;;;;1.85;50.20;91987.31;5071213;28;20190;-69
2023/03/12 03:16:05;;;;;;;9.07;8.40;;;;;;;1.93;51.30;91985.06;5071086;28;20233;-70
2023/03/12 03:18:31;;;;;;;8.60;8.30;;;;;;;1.80;50.95;91989.81;5070891;28;21148;-69
2023/03/12 03:21:03;;;;;;;8.30;8.07;;;;;;;1.98;50.63;91981.81;5069513;28;20225;-70
2023/03/12 03:23:29;;;;;;;8.20;7.90;;;;;;;1.92;50.82;91972.44;5070954;28;20174;-69
2023/03/12 03:25:55;;;;;;;8.60;8.23;;;;;;;1.97;51.00;91982.81;5070142;28;20310;-69
2023/03/12 03:28:23;;;;;;;8.47;8.17;;;;;;;1.87;49.95;91970.59;5070257;28;20246;-69
2023/03/12 03:30:51;;;;;;;8.03;7.83;;;;;;;1.94;49.40;91991.78;5069697;28;20298;-70
2023/03/12 03:33:17;;;;;;;8.57;8.27;;;;;;;1.86;51.62;92033.38;5070674;28;20213;-70
2023/03/12 03:35:42;;;;;;;9.40;9.10;;;;;;;1.84;50.91;91996.06;5070243;28;20240;-70
2023/03/12 03:38:08;;;;;;;8.83;8.53;;;;;;;1.89;51.06;91989.16;5070340;28;20251;-69
2023/03/12 03:40:33;;;;;;;9.77;9.37;;;;;;;1.85;50.09;92018.19;5070183;28;21121;-69
2023/03/12 03:42:58;;;;;;;8.53;8.27;;;;;;;1.88;49.72;92018.50;5071142;28;20181;-69
2023/03/12 03:45:24;;;;;;;8.10;7.80;;;;;;;1.83;50.56;92009.94;5070006;28;21105;-70
2023/03/12 03:47:50;;;;;;;7.73;7.50;;;;;;;1.83;50.41;92004.78;5070686;28;20209;-70
2023/03/12 03:50:15;;;;;;;8.50;8.10;;;;;;;1.85;51.64;92007.91;5069665;28;20233;-70
2023/03/12 03:52:41;;;;;;;9.20;8.80;;;;;;;1.95;50.54;92020.84;5069446;28;20209;-69
2023/03/12 03:55:07;;;;;;;9.23;8.77;;;;;;;1.95;52.09;92011.34;5069778;28;20185;-70
2023/03/12 03:57:32;;;;;;;9.67;9.27;;;;;;;1.94;52.33;91996.16;5070747;28;20178;-69
2023/03/12 03:59:59;;;;;;;9.07;8.77;;;;;;;1.91;52.79;92014.66;5069786;28;20173;-70
2023/03/12 04:02:26;;;;;;;8.30;8.00;;;;;;;1.80;52.97;92012.97;5070535;28;20189;-70
2023/03/12 04:04:52;;;;;;;8.93;8.63;;;;;;;1.81;52.90;92017.09;5069283;28;20205;-70
2023/03/12 04:07:17;;;;;;;9.43;8.90;;;;;;;1.66;54.66;92007.44;5070683;28;20189;-69
2023/03/12 04:09:43;;;;;;;8.80;8.50;;;;;;;1.80;54.93;92021.47;5067724;28;20193;-69
2023/03/12 04:12:09;;;;;;;8.77;8.47;;;;;;;1.71;53.15;92027.28;5069896;28;20234;-70
2023/03/12 04:14:38;;;;;;;9.50;9.20;;;;;;;1.77;52.54;92041.75;5069958;28;20260;-69
2023/03/12 04:17:03;;;;;;;8.57;8.27;;;;;;;1.70;52.81;92041.94;5068809;28;20227;-71
2023/03/12 04:19:29;;;;;;;8.83;8.43;;;;;;;1.69;54.01;92042.97;5069570;28;20245;-69
2023/03/12 04:21:54;;;;;;;8.33;7.70;;;;;;;1.72;53.42;92049.41;5069468;28;20248;-69
2023/03/12 04:24:20;;;;;;;9.10;8.70;;;;;;;1.62;52.86;92039.78;5069645;28;20261;-70
2023/03/12 04:26:45;;;;;;;10.20;9.33;;;;;;;1.62;54.24;92050.06;5069446;28;20248;-69
2023/03/12 04:29:10;;;;;;;9.07;8.27;;;;;;;1.72;53.13;92049.41;5102542;28;20189;-70
2023/03/12 04:31:36;;;;;;;8.77;8.47;;;;;;;1.70;53.62;92051.47;5069079;28;20229;-70
2023/03/12 04:34:01;;;;;;;8.67;8.37;;;;;;;1.70;54.49;92047.06;5069469;28;20209;-69
2023/03/12 04:36:27;;;;;;;8.57;8.17;;;;;;;1.58;54.14;92051.56;5069063;28;20272;-69
2023/03/12 04:38:53;;;;;;;9.07;8.73;;;;;;;1.67;53.60;92061.19;5069472;28;20178;-70
2023/03/12 04:41:18;;;;;;;9.00;8.70;;;;;;;1.62;53.46;92080.94;5068742;28;20244;-69
2023/03/12 04:43:43;;;;;;;8.77;8.27;;;;;;;1.65;52.72;92081.22;5069230;28;20209;-70
2023/03/12 04:46:09;;;;;;;8.63;8.33;;;;;;;1.59;52.99;92074.47;5069475;28;20252;-69
2023/03/12 04:48:35;;;;;;;9.20;8.80;;;;;;;1.79;51.68;92091.94;5069078;28;20197;-70
2023/03/12 04:51:02;;;;;;;9.30;8.77;;;;;;;1.76;52.28;92086.53;5068699;28;20233;-69
2023/03/12 04:53:27;;;;;;;9.77;9.37;;;;;;;1.67;51.01;92098.25;5068969;28;20177;-69
2023/03/12 04:55:53;;;;;;;8.87;8.47;;;;;;;1.70;51.10;92108.06;5068844;28;20297;-69
2023/03/12 04:58:19;;;;;;;8.87;8.47;;;;;;;1.70;52.01;92101.09;5069268;28;20189;-70
2023/03/12 05:00:47;;;;;;;9.57;9.17;;;;;;;1.67;50.50;92120.38;5068554;28;20240;-70
2023/03/12 05:03:13;;;;;;;9.10;8.67;;;;;;;1.73;50.80;92125.59;5068894;28;20218;-70
2023/03/12 05:05:38;;;;;;;8.53;8.13;;;;;;;1.76;50.46;92132.84;5067800;28;20920;-70
2023/03/12 05:08:04;;;;;;;8.77;8.37;;;;;;;1.76;49.79;92128.44;5069000;28;20170;-69
2023/03/12 05:10:29;;;;;;;9.07;8.57;;;;;;;1.87;51.52;92127.56;5067586;28;20229;-69
2023/03/12 05:12:55;;;;;;;10.40;9.70;;;;;;;1.74;50.39;92129.72;5068512;28;20264;-69
2023/03/12 05:15:20;;;;;;;9.87;9.27;;;;;;;1.99;51.99;92142.91;5068347;28;20263;-70
2023/03/12 05:17:46;;;;;;;10.00;9.50;;;;;;;2.14;52.50;92130.22;5068799;28;20177;-70
2023/03/12 05:20:11;;;;;;;9.53;9.13;;;;;;;2.06;51.18;92139.16;5067806;28;20233;-69
2023/03/12 05:22:37;;;;;;;8.60;8.20;;;;;;;2.05;51.81;92141.97;5068418;28;20725;-69
2023/03/12 05:25:03;;;;;;;8.47;8.17;;;;;;;1.95;50.05;92152.91;5067373;28;20201;-69
2023/03/12 05:27:29;;;;;;;8.90;8.60;;;;;;;2.07;51.70;92134.78;5067988;28;20280;-68
2023/03/12 05:29:54;;;;;;;9.37;8.97;;;;;;;1.88;49.94;92125.78;5068136;28;20193;-73
2023/03/12 05:32:19;;;;;;;9.40;8.97;;;;;;;1.82;50.83;92134.44;5064447;28;20226;-72
2023/03/12 05:34:45;;;;;;;10.23;9.83;;;;;;;1.92;51.27;92145.66;5066704;28;20189;-72
2023/03/12 05:37:10;;;;;;;8.17;7.87;;;;;;;2.03;49.68;92155.06;5067569;28;20276;-72
2023/03/12 05:39:36;;;;;;;9.20;8.87;;;;;;;1.97;50.98;92145.72;5066247;28;20292;-72
2023/03/12 05:42:02;;;;;;;8.70;8.40;;;;;;;2.10;48.79;92140.22;5067109;28;20289;-72
2023/03/12 05:44:28;;;;;;;8.97;8.67;;;;;;;2.18;49.00;92149.34;5069502;28;20209;-72
2023/03/12 05:46:53;;;;;;;7.73;7.53;;;;;;;2.10;46.47;92163.38;5069956;28;20226;-71
2023/03/12 05:49:19;;;;;;;8.93;8.63;;;;;;;2.19;46.75;92143.16;5071700;28;20197;-71
2023/03/12 05:51:46;;;;;;;9.20;8.80;;;;;;;2.30;45.87;92157.72;5071077;28;20260;-70
2023/03/12 05:54:11;;;;;;;8.57;8.00;;;;;;;2.26;46.36;92143.75;5068986;28;20209;-69
2023/03/12 05:56:37;;;;;;;8.57;8.17;;;;;;;2.39;47.63;92156.28;5070850;28;20216;-71
2023/03/12 05:59:03;;;;;;;8.53;8.23;;;;;;;2.16;48.08;92125.63;5071934;28;20264;-70
2023/03/12 06:01:29;;;;;;;8.57;8.27;;;;;;;2.38;47.51;92141.84;5069074;28;20236;-71
2023/03/12 06:03:55;;;;;;;8.97;8.67;;;;;;;2.53;43.41;92167.78;5071488;28;20217;-70
2023/03/12 06:06:22;;;;;;;8.93;8.63;;;;;;;2.57;44.10;92156.75;5069832;28;20228;-70
2023/03/12 06:08:48;;;;;;;8.27;7.97;;;;;;;2.66;44.18;92154.53;5070153;28;20193;-71
2023/03/12 06:11:14;;;;;;;8.23;8.00;;;;;;;2.58;43.42;92173.78;5069714;28;20229;-69
2023/03/12 06:13:40;;;;;;;8.63;8.33;;;;;;;2.62;44.61;92169.69;5070779;28;20181;-70
2023/03/12 06:16:10;;;;;;;8.23;7.93;;;;;;;2.63;43.62;92203.97;5070986;28;20255;-70
2023/03/12 06:18:36;;;;;;;8.90;8.50;;;;;;;2.65;42.81;92178.72;5070308;28;20186;-70
2023/03/12 06:21:15;;;;;;;8.40;8.10;;;;;;;2.71;43.61;92208.69;5070001;28;20225;-71
2023/03/12 06:23:42;;;;;;;9.27;8.87;;;;;;;2.40;47.80;92181.78;5071121;28;20188;-69
2023/03/12 06:26:09;;;;;;;9.30;8.90;;;;;;;2.48;48.58;92198.63;5066365;28;20292;-70
2023/03/12 06:28:35;;;;;;;8.40;8.10;;;;;;;2.28;50.43;92198.38;5071005;28;20178;-70
2023/03/12 06:31:01;;;;;;;10.10;9.37;;;;;;;2.49;49.33;92205.34;5069924;28;20256;-71
2023/03/12 06:33:27;;;;;;;8.63;8.20;;;;;;;2.12;51.14;92212.09;5070626;28;20193;-70
2023/03/12 06:35:58;;;;;;;9.43;8.77;;;;;;;2.30;49.64;92220.31;5067872;28;20264;-69
2023/03/12 06:38:24;;;;;;;11.03;10.53;;;;;;;2.16;50.17;92215.72;5100424;28;20185;-71
2023/03/12 06:41:01;;;;;;;8.63;8.23;;;;;;;2.34;51.76;92254.06;5066828;28;20221;-71
2023/03/12 06:43:28;;;;;;;8.83;8.53;;;;;;;2.22;52.06;92237.94;5068872;28;20236;-71
2023/03/12 06:45:56;;;;;;;8.87;8.50;;;;;;;2.34;51.04;92239.41;5068579;28;20230;-73
2023/03/12 06:48:23;;;;;;;9.90;9.40;;;;;;;2.47;49.37;92227.97;5070985;28;20189;-72
2023/03/12 06:50:48;;;;;;;10.40;9.97;;;;;;;2.48;50.29;92235.47;5067378;28;20238;-72
2023/03/12 06:53:14;;;;;;;10.43;9.80;;;;;;;2.55;49.70;92232.72;5068070;28;20204;-72
2023/03/12 06:55:39;;;;;;;8.40;7.97;;;;;;;2.43;50.77;92222.53;5068160;28;20253;-73
2023/03/12 06:58:05;;;;;;;9.57;9.07;;;;;;;2.75;50.74;92241.47;5070310;28;20199;-72
2023/03/12 07:00:31;;;;;;;8.60;8.20;;;;;;;2.67;48.01;92233.38;5069731;28;20225;-72
2023/03/12 07:02:57;;;;;;;8.87;8.30;;;;;;;2.76;49.89;92252.56;5069394;28;20209;-70
2023/03/12 07:05:23;;;;;;;8.70;8.40;;;;;;;2.43;51.32;92253.44;5069281;28;20237;-71
2023/03/12 07:07:49;;;;;;;8.00;7.67;;;;;;;2.25;52.79;92256.28;5070243;28;20216;-73
2023/03/12 07:10:15;;;;;;;7.80;7.40;;;;;;;2.60;51.45;92245.69;5069522;28;20229;-72
2023/03/12 07:12:40;;;;;;;8.47;8.10;;;;;;;2.81;50.91;92265.50;5068772;28;20193;-72
2023/03/12 07:15:06;;;;;;;8.60;8.23;;;;;;;2.76;50.30;92262.84;5068303;28;20185;-72
2023/03/12 07:17:31;;;;;;;9.33;8.93;;;;;;;2.91;50.24;92257.91;5068626;28;21051;-72
2023/03/12 07:19:56;;;;;;;8.23;7.93;;;;;;;2.90;49.74;92259.69;5068261;28;20182;-72
2023/03/12 07:22:22;;;;;;;8.27;7.97;;;;;;;2.99;51.76;92278.09;5069614;28;20205;-72
2023/03/12 07:24:47;;;;;;;10.27;9.53;;;;;;;2.86;56.60;92273.31;5070202;28;20201;-72
2023/03/12 07:27:13;;;;;;;9.67;9.27;;;;;;;2.35;60.11;92278.81;5067494;28;20230;-72
2023/03/12 07:29:38;;;;;;;11.03;10.33;;;;;;;2.65;61.07;92287.72;5070231;28;20182;-72
2023/03/12 07:32:04;;;;;;;9.40;8.77;;;;;;;2.74;55.80;92293.28;5067989;28;20217;-72
2023/03/12 07:34:29;;;;;;;9.50;9.03;;;;;;;2.75;53.67;92289.66;5070099;28;20193;-72
2023/03/12 07:36:55;;;;;;;9.93;9.37;;;;;;;3.14;57.45;92289.34;5068743;28;20336;-73
2023/03/12 07:39:21;;;;;;;9.67;9.17;;;;;;;2.87;54.72;92311.72;5069574;28;20245;-72
2023/03/12 07:41:46;;;;;;;9.23;8.83;;;;;;;2.97;53.30;92301.53;5069774;28;20217;-72
2023/03/12 07:44:11;;;;;;;11.33;10.83;;;;;;;3.07;51.21;92296.50;5066656;28;20225;-71
2023/03/12 07:46:37;;;;;;;8.67;8.17;;;;;;;3.01;50.61;92283.78;5069583;28;20259;-72
2023/03/12 07:49:03;;;;;;;8.73;8.43;;;;;;;3.05;50.65;92292.63;5069630;28;20257;-73
2023/03/12 07:51:29;;;;;;;9.63;9.20;;;;;;;3.09;50.57;92298.84;5068410;28;20221;-73
2023/03/12 07:53:55;;;;;;;9.80;8.93;;;;;;;3.08;51.01;92302.44;5067582;28;20196;-73
2023/03/12 07:56:20;;;;;;;8.73;8.37;;;;;;;2.99;50.09;92296.13;5067291;28;20236;-72
2023/03/12 07:58:46;;;;;;;9.37;8.97;;;;;;;2.89;50.85;92288.28;5068064;28;20193;-73
2023/03/12 08:01:11;;;;;;;8.73;8.33;;;;;;;3.22;51.99;92314.72;5066688;28;20261;-73
2023/03/12 08:03:37;;;;;;;9.57;9.00;;;;;;;3.19;51.24;92314.44;5068666;28;20721;-72
2023/03/12 08:06:03;;;;;;;9.70;9.30;;;;;;;3.20;52.49;92305.66;5056999;28;20238;-73
2023/03/12 08:08:30;;;;;;;10.37;9.67;;;;;;;3.36;54.67;92329.81;5047889;28;20186;-73
2023/03/12 08:10:56;;;;;;;10.13;9.73;;;;;;;3.02;56.20;92329.16;5047324;28;20249;-73
2023/03/12 08:13:22;;;;;;;9.20;8.70;;;;;;;2.79;55.43;92329.38;5047654;28;20197;-73
2023/03/12 08:15:49;;;;;;;9.93;9.43;;;;;;;2.67;54.81;92326.94;5054823;28;20316;-73
2023/03/12 08:18:15;;;;;;;8.97;8.60;;;;;;;2.63;56.87;92330.97;5068096;28;20209;-74
2023/03/12 08:20:40;;;;;;;9.40;8.90;;;;;;;2.65;53.94;92323.00;5068514;28;20263;-73
2023/03/12 08:23:05;;;;;;;9.60;8.73;;;;;;;2.96;55.44;92330.91;5068183;28;20256;-73
2023/03/12 08:25:31;;;;;;;8.50;7.97;;;;;;;2.91;53.53;92348.13;5065327;28;20293;-72
2023/03/12 08:27:56;;;;;;;10.07;9.17;;;;;;;2.67;53.53;92360.44;5068513;28;20265;-72
2023/03/12 08:30:22;;;;;;;8.73;8.33;;;;;;;2.71;52.43;92352.97;5099265;28;20240;-73
2023/03/12 08:32:47;;;;;;;9.37;8.93;;;;;;;2.75;53.81;92365.19;5068143;28;20209;-72
2023/03/12 08:35:12;;;;;;;10.63;10.13;;;;;;;2.53;54.53;92350.69;5068374;28;20238;-72
2023/03/12 08:37:38;;;;;;;9.83;9.33;;;;;;;2.74;54.08;92379.06;5068820;28;20188;-71
2023/03/12 08:40:13;;;;;;;9.07;8.67;;;;;;;2.86;53.70;92371.25;5068496;28;20197;-71
2023/03/12 08:42:40;;;;;;;9.70;9.30;;;;;;;2.92;54.03;92375.44;5067020;28;20197;-73
2023/03/12 08:45:06;;;;;;;9.17;8.77;;;;;;;2.89;53.96;92376.72;5067674;28;20228;-71
2023/03/12 08:47:32;;;;;;;10.00;9.30;;;;;;;2.96;55.63;92376.53;5068791;28;20178;-72
2023/03/12 08:49:57;;;;;;;9.60;9.20;;;;;;;2.72;55.40;92390.63;5068795;28;20196;-69
2023/03/12 08:52:23;;;;;;;9.00;8.37;;;;;;;2.79;54.67;92392.03;5068205;28;20224;-70
2023/03/12 08:54:49;;;;;;;9.17;8.77;;;;;;;3.14;54.95;92399.47;5068802;28;20186;-69
2023/03/12 08:57:15;;;;;;;10.37;9.77;;;;;;;3.41;53.21;92389.22;5068046;28;20236;-69
2023/03/12 08:59:40;;;;;;;9.67;9.27;;;;;;;3.10;52.47;92400.94;5067745;28;20197;-71
2023/03/12 09:02:06;;;;;;;9.00;8.60;;;;;;;2.90;54.46;92395.53;5067499;28;20213;-69
2023/03/12 09:04:31;;;;;;;9.63;9.03;;;;;;;3.24;55.42;92402.16;5069084;28;20181;-68
2023/03/12 09:06:57;;;;;;;8.87;8.47;;;;;;;3.27;53.31;92399.09;5068767;28;20700;-68
2023/03/12 09:09:22;;;;;;;9.67;9.23;;;;;;;3.34;52.33;92402.31;5068831;28;20193;-68
2023/03/12 09:11:47;;;;;;;9.97;9.47;;;;;;;3.00;52.31;92398.25;5068173;28;20251;-68
2023/03/12 09:14:13;;;;;;;10.73;10.23;;;;;;;3.20;55.11;92395.94;5069283;28;20190;-70
2023/03/12 09:16:38;;;;;;;9.33;8.93;;;;;;;3.23;54.31;92391.09;5068855;28;20217;-69
2023/03/12 09:19:04;;;;;;;9.83;9.43;;;;;;;3.17;52.34;92393.84;5068355;28;20186;-67
2023/03/12 09:21:29;;;;;;;9.50;9.07;;;;;;;3.02;53.23;92381.50;5067964;28;20216;-66
2023/03/12 09:23:54;;;;;;;8.93;8.53;;;;;;;3.37;55.17;92399.25;5068737;28;20194;-66
2023/03/12 09:26:20;;;;;;;9.37;8.97;;;;;;;3.28;52.44;92391.13;5068460;28;20224;-65
2023/03/12 09:28:45;;;;;;;9.57;9.17;;;;;;;3.23;53.61;92374.81;5100930;28;20216;-67
2023/03/12 09:31:11;;;;;;;8.27;7.87;;;;;;;3.21;53.08;92357.00;5067606;28;20224;-66
2023/03/12 09:33:37;;;;;;;9.57;9.10;;;;;;;3.38;53.79;92385.31;5068667;28;20185;-66
2023/03/12 09:36:03;;;;;;;9.77;9.17;;;;;;;3.41;53.69;92400.31;5067961;28;20221;-66
2023/03/12 09:38:30;;;;;;;9.17;8.77;;;;;;;3.50;53.75;92404.06;5067873;28;20215;-65
2023/03/12 09:40:57;;;;;;;8.57;8.17;;;;;;;3.45;53.99;92400.63;5068442;28;20256;-67
2023/03/12 09:43:44;;;;;;;9.83;9.37;;;;;;;3.38;54.07;92387.88;5068158;28;20196;-67
2023/03/12 09:46:23;;;;;;;9.50;9.00;;;;;;;3.43;54.04;92397.50;5066900;28;20280;-67
2023/03/12 09:48:50;;;;;;;9.23;8.83;;;;;;;3.33;53.65;92393.78;5065172;28;20189;-67
2023/03/12 09:51:39;;;;;;;9.30;8.80;;;;;;;3.56;52.99;92403.09;5067466;28;20236;-68
2023/03/12 09:54:13;;;;;;;9.17;8.77;;;;;;;3.46;53.33;92402.16;5068361;28;20217;-67
2023/03/12 09:56:38;;;;;;;10.03;9.53;;;;;;;3.47;52.74;92391.59;5067526;28;20235;-68
2023/03/12 09:59:10;;;;;;;9.60;9.10;;;;;;;3.56;52.78;92390.19;5068900;28;20249;-67
2023/03/12 10:02:00;;;;;;;9.43;9.03;;;;;;;3.59;53.05;92400.03;5068227;28;20234;-67
2023/03/12 10:04:42;;;;;;;9.10;8.80;;;;;;;3.81;53.28;92390.47;5068889;28;20188;-68
2023/03/12 10:07:10;;;;;;;9.87;9.27;;;;;;;3.86;53.21;92387.16;5068047;28;20225;-69
2023/03/12 10:09:38;;;;;;;8.67;8.33;;;;;;;3.69;52.55;92397.53;5068775;28;20193;-70
2023/03/12 10:12:12;;;;;;;9.57;9.07;;;;;;;3.81;52.53;92390.47;5067989;28;20259;-69
2023/03/12 10:14:37;;;;;;;10.07;9.57;;;;;;;3.77;52.07;92383.41;5063181;28;20216;-71
2023/03/12 10:17:09;;;;;;;9.23;8.83;;;;;;;3.93;52.54;92383.34;5066664;28;20933;-70
2023/03/12 10:19:41;;;;;;;10.07;9.60;;;;;;;4.02;51.83;92376.72;5067472;28;20191;-71
2023/03/12 10:22:21;;;;;;;10.20;9.70;;;;;;;4.24;51.12;92385.19;5067091;28;20252;-70
2023/03/12 10:25:15;;;;;;;9.10;8.80;;;;;;;4.03;50.97;92367.94;5065928;28;20932;-71
2023/03/12 10:27:42;;;;;;;9.07;8.57;;;;;;;4.51;51.23;92385.91;5066183;28;20218;-71
2023/03/12 10:30:20;;;;;;;10.20;9.77;;;;;;;4.21;53.01;92377.91;5067312;28;20201;-70
2023/03/12 10:33:03;;;;;;;9.57;9.07;;;;;;;4.21;50.90;92371.97;5070728;28;20193;-70
2023/03/12 10:35:32;;;;;;;9.07;8.77;;;;;;;4.37;52.26;92379.59;5070840;28;20241;-70
2023/03/12 10:38:01;;;;;;;9.40;9.00;;;;;;;4.28;50.33;92391.41;5069181;28;20178;-69
2023/03/12 10:40:35;;;;;;;9.23;8.93;;;;;;;4.22;51.31;92382.06;5069194;28;20229;-70
2023/03/12 10:43:01;;;;;;;10.07;9.50;;;;;;;4.06;51.55;92371.84;5068474;28;20258;-70
2023/03/12 10:45:36;;;;;;;9.17;8.77;;;;;;;4.37;50.79;92392.50;5070445;28;20236;-68
2023/03/12 10:48:06;;;;;;;9.53;9.00;;;;;;;4.17;51.54;92389.00;5069756;28;20189;-70
2023/03/12 10:50:35;;;;;;;9.23;8.83;;;;;;;4.50;52.39;92386.94;5070769;28;20233;-69
2023/03/12 10:53:12;;;;;;;10.10;9.63;;;;;;;4.91;49.69;92386.22;5069747;28;20196;-70
2023/03/12 10:55:38;;;;;;;10.07;9.57;;;;;;;4.65;51.76;92381.09;5068445;28;20225;-70
2023/03/12 10:58:03;;;;;;;8.93;8.43;;;;;;;4.59;49.98;92388.03;5068578;28;20201;-70
2023/03/12 11:00:31;;;;;;;10.80;10.33;;;;;;;4.38;50.98;92386.34;5068364;28;20237;-70
2023/03/12 11:03:05;;;;;;;10.07;9.57;;;;;;;4.47;50.08;92389.22;5069767;28;20185;-69
2023/03/12 11:05:34;;;;;;;10.07;9.60;;;;;;;4.77;50.70;92390.25;5069327;28;20224;-70
2023/03/12 11:08:02;;;;;;;10.23;9.73;;;;;;;4.76;49.77;92393.09;5069600;28;20197;-69
2023/03/12 11:10:41;;;;;;;9.90;9.40;;;;;;;4.40;51.00;92386.09;5069376;28;20439;-70
2023/03/12 11:13:21;;;;;;;9.87;9.43;;;;;;;4.48;50.45;92376.06;5069489;28;20220;-69
2023/03/12 11:15:47;;;;;;;10.30;9.80;;;;;;;4.98;50.44;92378.19;5069321;28;20233;-69
2023/03/12 11:18:20;;;;;;;10.40;9.97;;;;;;;4.73;50.49;92389.16;5070149;28;20257;-69
2023/03/12 11:20:49;;;;;;;10.97;10.37;;;;;;;4.74;50.29;92380.41;5069302;28;20300;-73
2023/03/12 11:23:27;;;;;;;9.97;9.50;;;;;;;4.69;49.86;92395.09;5068408;28;20280;-72
2023/03/12 11:26:10;;;;;;;9.90;9.40;;;;;;;4.42;50.65;92377.06;5070020;28;20237;-69
2023/03/12 11:28:42;;;;;;;10.47;10.03;;;;;;;4.80;50.67;92378.63;5069670;28;20189;-69
2023/03/12 11:31:17;;;;;;;9.23;8.83;;;;;;;4.95;50.42;92376.13;5069507;28;20217;-69
2023/03/12 11:33:43;;;;;;;8.43;8.03;;;;;;;4.93;49.61;92383.38;5070077;28;20203;-69
2023/03/12 11:36:25;;;;;;;9.27;8.87;;;;;;;5.12;50.29;92375.97;5070188;28;20240;-69
2023/03/12 11:39:22;;;;;;;9.57;9.07;;;;;;;5.10;49.12;92378.03;5069544;28;20182;-69
2023/03/12 11:41:57;;;;;;;10.87;10.27;;;;;;;5.17;49.33;92383.78;5068864;28;20237;-69